createdAt,value
2018-08-09T00:01:11.309Z,5.93
2018-08-09T00:03:39.781Z,6.50
2018-08-09T00:06:08.325Z,6.00
2018-08-09T00:08:36.861Z,5.70
2018-08-09T00:11:05.364Z,6.00
2018-08-09T00:13:33.909Z,5.83
2018-08-09T00:16:02.407Z,6.60
2018-08-09T00:18:30.971Z,5.83
2018-08-09T00:20:59.465Z,5.97
2018-08-09T00:23:27.981Z,6.53
2018-08-09T00:25:56.539Z,6.00
2018-08-09T00:28:25.051Z,6.60
2018-08-09T00:30:53.593Z,7.00
2018-08-09T00:33:22.175Z,6.40
2018-08-09T00:35:50.726Z,6.07
2018-08-09T00:38:20.053Z,6.33
2018-08-09T00:40:48.598Z,6.47
2018-08-09T00:43:17.148Z,6.90
2018-08-09T00:45:45.682Z,6.40
2018-08-09T00:48:14.217Z,6.57
2018-08-09T00:50:42.773Z,6.73
2018-08-09T00:53:11.321Z,6.10
2018-08-09T00:55:39.868Z,7.03
2018-08-09T00:58:08.417Z,6.50
2018-08-09T01:00:36.958Z,6.10
2018-08-09T01:03:05.834Z,6.70
2018-08-09T01:05:34.353Z,6.60
2018-08-09T01:08:02.865Z,6.90
2018-08-09T01:10:31.388Z,6.80
2018-08-09T01:12:59.932Z,6.53
2018-08-09T01:15:28.519Z,6.53
2018-08-09T01:17:57.034Z,6.57
2018-08-09T01:20:25.541Z,6.80
2018-08-09T01:22:54.163Z,6.70
2018-08-09T01:25:22.648Z,7.17
2018-08-09T01:27:51.220Z,7.00
2018-08-09T01:30:19.752Z,7.30
2018-08-09T01:32:48.291Z,8.17
2018-08-09T01:35:16.797Z,7.63
2018-08-09T01:37:45.339Z,7.27
2018-08-09T01:40:13.837Z,7.23
2018-08-09T01:42:53.517Z,7.57
2018-08-09T01:45:22.063Z,7.77
2018-08-09T01:47:50.599Z,8.20
2018-08-09T01:50:19.131Z,8.30
2018-08-09T01:52:47.665Z,7.83
2018-08-09T01:55:16.207Z,8.27
2018-08-09T01:57:44.759Z,8.30
2018-08-09T02:00:13.290Z,7.73
2018-08-09T02:02:41.724Z,8.50
2018-08-09T02:05:10.809Z,8.50
2018-08-09T02:07:39.327Z,8.67
2018-08-09T02:10:07.884Z,8.60
2018-08-09T02:12:36.356Z,8.73
2018-08-09T02:15:05.186Z,8.23
2018-08-09T02:17:33.689Z,7.77
2018-08-09T02:20:02.301Z,8.27
2018-08-09T02:22:30.797Z,8.00
2018-08-09T02:24:59.325Z,8.43
2018-08-09T02:27:27.827Z,8.10
2018-08-09T02:29:56.332Z,8.23
2018-08-09T02:32:24.829Z,8.60
2018-08-09T02:34:53.357Z,8.47
2018-08-09T02:37:21.889Z,8.87
2018-08-09T02:39:50.404Z,8.40
2018-08-09T02:42:18.933Z,9.03
2018-08-09T02:44:47.417Z,9.00
2018-08-09T02:47:15.961Z,9.17
2018-08-09T02:49:45.483Z,9.13
2018-08-09T02:52:13.993Z,8.90
2018-08-09T02:54:42.520Z,9.23
2018-08-09T02:57:11.049Z,8.83
2018-08-09T02:59:39.581Z,8.93
2018-08-09T03:02:08.097Z,9.23
2018-08-09T03:04:36.634Z,9.23
2018-08-09T03:07:05.373Z,9.10
2018-08-09T03:09:33.872Z,8.90
2018-08-09T03:12:02.358Z,8.80
2018-08-09T03:14:30.900Z,9.70
2018-08-09T03:16:59.433Z,8.90
2018-08-09T03:19:27.988Z,9.10
2018-08-09T03:21:56.553Z,9.00
2018-08-09T03:24:25.130Z,8.00
2018-08-09T03:26:53.610Z,8.90
2018-08-09T03:29:22.104Z,9.13
2018-08-09T03:31:50.614Z,9.13
2018-08-09T03:34:19.093Z,8.97
2018-08-09T03:36:47.642Z,9.23
2018-08-09T03:39:16.156Z,8.50
2018-08-09T03:41:44.682Z,8.63
2018-08-09T03:44:13.221Z,8.30
2018-08-09T03:46:41.760Z,8.60
2018-08-09T03:49:10.280Z,8.70
2018-08-09T03:51:38.812Z,8.73
2018-08-09T03:54:07.302Z,8.70
2018-08-09T03:56:35.837Z,9.40
2018-08-09T04:00:33.488Z,8.53
2018-08-09T04:03:01.991Z,8.53
2018-08-09T04:05:30.549Z,8.70
2018-08-09T04:07:59.090Z,8.40
2018-08-09T04:10:27.833Z,8.47
2018-08-09T04:12:56.386Z,7.63
2018-08-09T04:15:24.934Z,8.30
2018-08-09T04:17:53.527Z,7.67
2018-08-09T04:20:22.094Z,8.07
2018-08-09T04:22:50.552Z,7.73
2018-08-09T04:25:19.128Z,8.03
2018-08-09T04:27:47.701Z,8.00
2018-08-09T04:30:16.344Z,8.23
2018-08-09T04:32:45.366Z,7.80
2018-08-09T04:35:13.926Z,7.90
2018-08-09T04:37:42.439Z,7.87
2018-08-09T04:40:11.029Z,7.77
2018-08-09T04:42:39.587Z,7.93
2018-08-09T04:45:08.906Z,8.20
2018-08-09T04:47:37.681Z,7.97
2018-08-09T04:50:06.853Z,8.07
2018-08-09T04:52:35.778Z,8.00
2018-08-09T04:55:04.420Z,8.33
2018-08-09T04:57:33.033Z,8.43
2018-08-09T05:00:01.602Z,7.80
2018-08-09T05:02:30.500Z,8.33
2018-08-09T05:04:59.033Z,8.90
2018-08-09T05:07:27.578Z,9.03
2018-08-09T05:09:58.069Z,8.33
2018-08-09T05:12:26.613Z,8.63
2018-08-09T05:14:56.176Z,8.40
2018-08-09T05:17:24.734Z,8.67
2018-08-09T05:19:53.276Z,8.73
2018-08-09T05:22:21.839Z,8.77
2018-08-09T05:24:50.376Z,8.40
2018-08-09T05:27:18.897Z,8.37
2018-08-09T05:29:47.412Z,8.40
2018-08-09T05:32:16.017Z,8.20
2018-08-09T05:34:44.723Z,8.17
2018-08-09T05:37:13.265Z,8.13
2018-08-09T05:39:41.756Z,8.30
2018-08-09T05:42:10.295Z,7.77
2018-08-09T05:44:38.804Z,8.20
2018-08-09T05:47:07.377Z,8.20
2018-08-09T05:49:35.858Z,8.00
2018-08-09T05:52:04.483Z,7.50
2018-08-09T05:54:33.469Z,7.60
2018-08-09T05:57:02.027Z,7.87
2018-08-09T05:59:30.644Z,7.80
2018-08-09T06:01:59.280Z,7.23
2018-08-09T06:04:27.786Z,7.90
2018-08-09T06:06:56.853Z,7.70
2018-08-09T06:09:25.437Z,7.07
2018-08-09T06:11:54.001Z,7.37
2018-08-09T06:14:22.520Z,7.20
2018-08-09T06:16:51.137Z,7.80
2018-08-09T06:19:19.682Z,7.30
2018-08-09T06:21:48.256Z,7.17
2018-08-09T06:24:16.803Z,7.57
2018-08-09T06:26:45.455Z,6.70
2018-08-09T06:29:13.953Z,7.13
2018-08-09T06:31:42.525Z,6.93
2018-08-09T06:34:11.045Z,7.43
2018-08-09T06:36:39.593Z,6.73
2018-08-09T06:39:08.961Z,6.40
2018-08-09T06:41:38.484Z,7.20
2018-08-09T06:44:07.049Z,6.90
2018-08-09T06:46:35.560Z,6.33
2018-08-09T06:49:04.129Z,6.40
2018-08-09T06:51:32.644Z,7.03
2018-08-09T06:54:01.230Z,6.80
2018-08-09T06:56:30.153Z,7.00
2018-08-09T06:58:59.024Z,6.47
2018-08-09T07:01:27.532Z,6.43
2018-08-09T07:03:56.533Z,6.08
2018-08-09T07:06:25.018Z,6.65
2018-08-09T07:08:53.637Z,7.30
2018-08-09T07:11:22.177Z,6.12
2018-08-09T07:13:50.766Z,7.28
2018-08-09T07:16:19.253Z,6.97
2018-08-09T07:18:47.789Z,6.78
2018-08-09T07:21:16.498Z,6.92
2018-08-09T07:23:45.041Z,7.37
2018-08-09T07:26:13.577Z,6.97
2018-08-09T07:28:42.475Z,7.25
2018-08-09T07:31:11.325Z,6.37
2018-08-09T07:33:39.969Z,5.72
2018-08-09T07:36:08.514Z,5.45
2018-08-09T07:38:37.089Z,5.03
2018-08-09T07:41:05.637Z,5.03
2018-08-09T07:43:34.170Z,5.53
2018-08-09T07:46:03.305Z,4.97
2018-08-09T07:48:31.893Z,5.58
2018-08-09T07:51:00.377Z,4.95
2018-08-09T07:53:29.518Z,5.28
2018-08-09T07:55:58.037Z,5.75
2018-08-09T07:58:27.122Z,6.40
2018-08-09T08:00:56.604Z,6.17
2018-08-09T08:03:25.176Z,5.65
2018-08-09T08:05:53.695Z,6.35
2018-08-09T08:08:22.286Z,6.65
2018-08-09T08:10:50.795Z,5.45
2018-08-09T08:13:20.517Z,5.53
2018-08-09T08:15:49.063Z,5.95
2018-08-09T08:18:17.603Z,6.37
2018-08-09T08:20:46.171Z,6.20
2018-08-09T08:23:14.732Z,6.83
2018-08-09T08:25:43.265Z,5.67
2018-08-09T08:28:11.880Z,5.65
2018-08-09T08:30:40.427Z,5.42
2018-08-09T08:33:08.976Z,5.20
2018-08-09T08:35:37.457Z,5.00
2018-08-09T08:38:06.248Z,4.55
2018-08-09T08:40:34.745Z,5.67
2018-08-09T08:43:03.303Z,4.28
2018-08-09T08:45:31.835Z,4.25
2018-08-09T08:48:00.412Z,4.12
2018-08-09T08:50:28.938Z,4.40
2018-08-09T08:52:57.446Z,5.00
2018-08-09T08:55:25.991Z,3.83
2018-08-09T08:57:54.555Z,4.05
2018-08-09T09:00:23.097Z,4.03
2018-08-09T09:02:55.016Z,3.90
2018-08-09T09:05:23.596Z,3.83
2018-08-09T09:07:55.380Z,3.80
2018-08-09T09:10:23.943Z,3.70
2018-08-09T09:12:52.489Z,3.50
2018-08-09T09:15:24.769Z,3.83
2018-08-09T09:17:53.309Z,3.50
2018-08-09T09:20:21.823Z,3.45
2018-08-09T09:22:50.338Z,3.87
2018-08-09T09:25:18.853Z,3.87
2018-08-09T09:27:47.336Z,3.58
2018-08-09T09:30:17.353Z,3.40
2018-08-09T09:32:46.109Z,3.45
2018-08-09T09:35:14.630Z,3.50
2018-08-09T09:37:43.735Z,3.80
2018-08-09T09:40:12.285Z,3.50
2018-08-09T09:42:41.541Z,3.80
2018-08-09T09:45:15.890Z,3.80
2018-08-09T09:47:49.078Z,3.60
2018-08-09T09:50:17.689Z,3.87
2018-08-09T09:52:48.301Z,3.45
2018-08-09T09:55:16.826Z,3.62
2018-08-09T09:57:45.341Z,3.60
2018-08-09T10:00:19.154Z,3.58
2018-08-09T10:02:47.610Z,3.60
2018-08-09T10:05:16.460Z,3.30
2018-08-09T10:07:44.926Z,3.77
2018-08-09T10:10:13.449Z,3.45
2018-08-09T10:12:42.810Z,3.30
2018-08-09T10:15:11.525Z,3.70
2018-08-09T10:17:39.993Z,3.50
2018-08-09T10:20:09.005Z,3.90
2018-08-09T10:22:37.788Z,3.75
2018-08-09T10:25:06.916Z,3.30
2018-08-09T10:27:35.406Z,3.50
2018-08-09T10:30:04.017Z,3.87
2018-08-09T10:32:32.497Z,3.80
2018-08-09T10:35:01.052Z,3.92
2018-08-09T10:37:29.866Z,3.80
2018-08-09T10:39:58.447Z,3.95
2018-08-09T10:42:26.985Z,4.10
2018-08-09T10:44:55.579Z,4.12
2018-08-09T10:47:24.089Z,4.35
2018-08-09T10:49:52.605Z,4.05
2018-08-09T10:52:21.143Z,4.37
2018-08-09T10:54:49.644Z,4.90
2018-08-09T10:57:18.162Z,4.92
2018-08-09T10:59:46.725Z,4.85
2018-08-09T11:02:15.254Z,4.70
2018-08-09T11:04:44.200Z,4.47
2018-08-09T11:07:13.101Z,4.20
2018-08-09T11:09:41.637Z,4.80
2018-08-09T11:13:34.574Z,4.28
2018-08-09T11:16:03.102Z,4.17
2018-08-09T11:18:31.801Z,4.80
2018-08-09T11:21:00.535Z,4.60
2018-08-09T11:23:29.085Z,5.03
2018-08-09T11:25:58.424Z,4.25
2018-08-09T11:28:26.976Z,4.62
2018-08-09T11:30:55.837Z,4.58
2018-08-09T11:33:24.801Z,4.40
2018-08-09T11:35:53.496Z,4.28
2018-08-09T11:38:22.047Z,4.05
2018-08-09T11:40:50.729Z,4.92
2018-08-09T11:43:19.233Z,4.50
2018-08-09T11:45:47.849Z,4.05
2018-08-09T11:48:16.413Z,4.10
2018-08-09T11:50:45.291Z,4.10
2018-08-09T11:53:15.355Z,3.80
2018-08-09T11:55:43.897Z,3.98
2018-08-09T11:58:12.490Z,3.98
2018-08-09T12:00:42.253Z,4.22
2018-08-09T12:03:10.781Z,4.15
2018-08-09T12:05:39.340Z,4.28
2018-08-09T12:08:07.870Z,4.25
2018-08-09T12:10:36.381Z,4.25
2018-08-09T12:13:04.949Z,5.08
2018-08-09T12:15:33.545Z,4.70
2018-08-09T12:18:02.072Z,4.33
2018-08-09T12:20:30.684Z,4.70
2018-08-09T12:22:59.197Z,4.37
2018-08-09T12:25:27.740Z,4.40
2018-08-09T12:27:56.604Z,4.30
2018-08-09T12:30:25.111Z,4.10
2018-08-09T12:32:53.671Z,4.20
2018-08-09T12:35:22.150Z,4.22
2018-08-09T12:37:50.733Z,4.17
2018-08-09T12:40:19.221Z,4.50
2018-08-09T12:42:47.772Z,4.33
2018-08-09T12:45:16.268Z,4.10
2018-08-09T12:47:44.801Z,4.05
2018-08-09T12:50:14.416Z,4.00
2018-08-09T12:52:43.994Z,4.12
2018-08-09T12:55:13.696Z,4.25
2018-08-09T12:57:42.616Z,4.10
2018-08-09T13:00:13.078Z,3.65
2018-08-09T13:02:41.982Z,3.80
2018-08-09T13:05:11.827Z,3.83
2018-08-09T13:07:40.797Z,3.65
2018-08-09T13:10:15.986Z,4.00
2018-08-09T13:12:44.547Z,3.85
2018-08-09T13:15:14.162Z,4.00
2018-08-09T13:17:43.663Z,3.75
2018-08-09T13:20:15.202Z,4.17
2018-08-09T13:22:43.744Z,4.05
2018-08-09T13:25:12.357Z,4.10
2018-08-09T13:27:41.108Z,3.90
2018-08-09T13:30:12.233Z,4.08
2018-08-09T13:32:41.069Z,3.80
2018-08-09T13:35:09.925Z,3.95
2018-08-09T13:37:38.507Z,4.08
2018-08-09T13:40:10.733Z,3.75
2018-08-09T13:42:42.573Z,4.25
2018-08-09T13:45:13.640Z,3.77
2018-08-09T13:47:42.469Z,3.80
2018-08-09T13:50:11.780Z,3.87
2018-08-09T13:52:41.168Z,3.87
2018-08-09T13:56:36.680Z,3.80
2018-08-09T13:59:05.246Z,3.70
2018-08-09T14:01:33.814Z,3.65
2018-08-09T14:04:02.354Z,4.00
2018-08-09T14:06:30.821Z,4.72
2018-08-09T14:08:59.408Z,3.65
2018-08-09T14:11:27.998Z,3.72
2018-08-09T14:13:56.540Z,3.70
2018-08-09T14:16:25.064Z,4.00
2018-08-09T14:18:53.641Z,3.85
2018-08-09T14:21:22.145Z,4.28
2018-08-09T14:23:50.855Z,3.90
2018-08-09T14:26:19.378Z,3.85
2018-08-09T14:28:47.959Z,3.98
2018-08-09T14:31:18.608Z,4.00
2018-08-09T14:33:47.163Z,4.17
2018-08-09T14:36:15.643Z,4.12
2018-08-09T14:38:44.305Z,3.83
2018-08-09T14:41:13.242Z,4.00
2018-08-09T14:43:41.768Z,4.00
2018-08-09T14:46:10.267Z,4.92
2018-08-09T14:48:38.796Z,4.70
2018-08-09T14:51:07.337Z,4.17
2018-08-09T14:53:35.917Z,4.17
2018-08-09T14:56:04.492Z,4.10
2018-08-09T14:58:33.048Z,3.90
2018-08-09T15:01:01.546Z,3.72
2018-08-09T15:03:30.105Z,3.87
2018-08-09T15:05:58.650Z,4.10
2018-08-09T15:08:27.156Z,3.87
2018-08-09T15:10:55.679Z,3.95
2018-08-09T15:13:24.232Z,3.90
2018-08-09T15:15:52.777Z,4.00
2018-08-09T15:18:21.261Z,4.17
2018-08-09T15:20:49.744Z,4.20
2018-08-09T15:23:18.302Z,3.98
2018-08-09T15:25:46.797Z,3.90
2018-08-09T15:28:15.367Z,4.15
2018-08-09T15:30:43.834Z,3.90
2018-08-09T15:33:12.333Z,4.00
2018-08-09T15:35:40.840Z,4.17
2018-08-09T15:38:09.444Z,3.70
2018-08-09T15:40:37.961Z,4.30
2018-08-09T15:43:06.508Z,3.98
2018-08-09T15:45:35.022Z,4.03
2018-08-09T15:48:03.609Z,3.70
2018-08-09T15:50:32.171Z,3.90
2018-08-09T15:53:00.704Z,3.70
2018-08-09T15:55:29.192Z,3.67
2018-08-09T15:57:57.789Z,3.77
2018-08-09T16:00:26.342Z,3.70
2018-08-09T16:02:54.858Z,3.83
2018-08-09T16:05:23.428Z,4.10
2018-08-09T16:07:51.976Z,3.80
2018-08-09T16:10:20.536Z,3.80
2018-08-09T16:12:49.102Z,4.22
2018-08-09T16:15:18.977Z,4.15
2018-08-09T16:17:48.369Z,4.00
2018-08-09T16:20:17.030Z,4.35
2018-08-09T16:22:46.269Z,4.00
2018-08-09T16:25:17.213Z,3.83
2018-08-09T16:27:45.845Z,3.87
2018-08-09T16:30:18.058Z,3.95
2018-08-09T16:32:46.603Z,3.75
2018-08-09T16:35:15.347Z,3.40
2018-08-09T16:37:44.584Z,3.10
2018-08-09T16:40:18.713Z,3.00
2018-08-09T16:42:47.745Z,3.17
2018-08-09T16:45:17.496Z,3.00
2018-08-09T16:47:46.073Z,2.95
2018-08-09T16:50:19.841Z,2.98
2018-08-09T16:52:50.249Z,3.17
2018-08-09T16:55:19.697Z,3.10
2018-08-09T16:57:48.401Z,2.85
2018-08-09T17:00:18.357Z,3.22
2018-08-09T17:02:46.891Z,3.20
2018-08-09T17:05:18.528Z,2.87
2018-08-09T17:07:47.189Z,3.02
2018-08-09T17:10:18.491Z,3.50
2018-08-09T17:12:47.272Z,3.40
2018-08-09T17:15:21.365Z,3.20
2018-08-09T17:17:50.033Z,3.30
2018-08-09T17:20:24.760Z,3.30
2018-08-09T17:22:53.357Z,3.33
2018-08-09T17:25:21.937Z,3.25
2018-08-09T17:27:50.910Z,3.30
2018-08-09T17:30:21.094Z,3.27
2018-08-09T17:32:49.600Z,3.10
2018-08-09T17:35:18.785Z,3.08
2018-08-09T17:37:47.420Z,3.20
2018-08-09T17:40:22.821Z,3.80
2018-08-09T17:42:52.289Z,3.55
2018-08-09T17:45:25.660Z,3.67
2018-08-09T17:47:54.506Z,3.60
2018-08-09T17:50:23.393Z,3.50
2018-08-09T17:52:51.952Z,3.70
2018-08-09T17:55:20.494Z,3.85
2018-08-09T17:57:49.058Z,3.70
2018-08-09T18:00:23.984Z,4.10
2018-08-09T18:02:52.953Z,3.90
2018-08-09T18:05:21.618Z,3.62
2018-08-09T18:07:50.515Z,3.80
2018-08-09T18:10:27.162Z,3.60
2018-08-09T18:12:56.090Z,3.87
2018-08-09T18:15:26.001Z,3.50
2018-08-09T18:17:55.114Z,3.52
2018-08-09T18:20:29.169Z,3.80
2018-08-09T18:22:58.101Z,4.30
2018-08-09T18:25:30.054Z,4.62
2018-08-09T18:27:58.744Z,4.28
2018-08-09T18:30:27.302Z,4.45
2018-08-09T18:32:56.769Z,4.10
2018-08-09T18:35:25.333Z,4.25
2018-08-09T18:37:54.166Z,4.65
2018-08-09T18:40:24.907Z,4.75
2018-08-09T18:42:53.566Z,4.30
2018-08-09T18:45:22.704Z,4.92
2018-08-09T18:47:51.397Z,4.25
2018-08-09T18:50:26.351Z,4.50
2018-08-09T18:52:54.987Z,4.30
2018-08-09T18:55:23.856Z,4.45
2018-08-09T18:57:52.496Z,4.15
2018-08-09T19:00:26.951Z,4.42
2018-08-09T19:02:55.600Z,4.58
2018-08-09T19:05:24.462Z,4.08
2018-08-09T19:07:53.058Z,4.37
2018-08-09T19:10:24.037Z,4.50
2018-08-09T19:12:52.594Z,4.33
2018-08-09T19:15:21.229Z,4.45
2018-08-09T19:17:50.001Z,4.15
2018-08-09T19:20:23.573Z,4.12
2018-08-09T19:22:52.380Z,3.90
2018-08-09T19:25:21.089Z,4.37
2018-08-09T19:27:49.707Z,4.00
2018-08-09T19:30:19.984Z,4.40
2018-08-09T19:32:49.465Z,4.10
2018-08-09T19:35:20.471Z,3.73
2018-08-09T19:37:49.119Z,3.60
2018-08-09T19:40:19.519Z,3.67
2018-08-09T19:42:48.152Z,3.97
2018-08-09T19:45:17.849Z,4.40
2018-08-09T19:47:46.513Z,3.87
2018-08-09T19:50:19.524Z,3.80
2018-08-09T19:52:48.243Z,3.90
2018-08-09T19:55:20.678Z,3.90
2018-08-09T19:57:49.933Z,4.10
2018-08-09T20:00:22.094Z,4.27
2018-08-09T20:02:50.824Z,4.10
2018-08-09T20:05:19.484Z,4.17
2018-08-09T20:07:48.141Z,3.90
2018-08-09T20:10:16.819Z,4.17
2018-08-09T20:12:46.265Z,3.60
2018-08-09T20:15:17.082Z,3.80
2018-08-09T20:17:45.756Z,3.37
2018-08-09T20:20:15.906Z,3.13
2018-08-09T20:22:44.614Z,3.30
2018-08-09T20:25:13.889Z,3.37
2018-08-09T20:27:43.034Z,3.43
2018-08-09T20:30:13.247Z,3.57
2018-08-09T20:32:42.293Z,3.27
2018-08-09T20:35:13.357Z,3.40
2018-08-09T20:37:42.821Z,3.10
2018-08-09T20:40:12.076Z,2.93
2018-08-09T20:42:41.080Z,3.40
2018-08-09T20:45:11.306Z,2.93
2018-08-09T20:47:39.910Z,3.00
2018-08-09T20:50:12.014Z,3.30
2018-08-09T20:52:41.345Z,3.10
2018-08-09T20:55:10.438Z,2.90
2018-08-09T20:57:40.336Z,3.03
2018-08-09T21:00:24.430Z,3.10
2018-08-09T21:02:54.359Z,3.00
2018-08-09T21:05:25.127Z,3.17
2018-08-09T21:07:54.926Z,2.90
2018-08-09T21:10:23.914Z,3.20
2018-08-09T21:12:52.465Z,2.90
2018-08-09T21:15:21.328Z,3.20
2018-08-09T21:17:49.946Z,3.20
2018-08-09T21:20:18.527Z,3.00
2018-08-09T21:22:47.947Z,3.20
2018-08-09T21:25:16.563Z,3.23
2018-08-09T21:27:45.467Z,3.13
2018-08-09T21:30:16.221Z,3.20
2018-08-09T21:32:45.414Z,3.67
2018-08-09T21:35:13.935Z,3.30
2018-08-09T21:37:43.046Z,3.20
2018-08-09T21:40:12.445Z,4.30
2018-08-09T21:42:41.134Z,4.40
2018-08-09T21:45:12.887Z,2.73
2018-08-09T21:47:41.557Z,3.23
2018-08-09T21:50:12.342Z,2.90
2018-08-09T21:52:41.191Z,3.23
2018-08-09T21:55:10.600Z,3.10
2018-08-09T21:57:39.181Z,2.90
2018-08-09T22:00:39.210Z,3.50
2018-08-09T22:03:07.820Z,3.40
2018-08-09T22:05:41.786Z,3.10
2018-08-09T22:08:15.530Z,3.07
2018-08-09T22:10:49.424Z,2.70
2018-08-09T22:13:23.213Z,3.23
2018-08-09T22:15:57.014Z,3.20
2018-08-09T22:18:30.878Z,3.03
2018-08-09T22:21:04.640Z,3.10
2018-08-09T22:23:33.232Z,3.10
2018-08-09T22:26:02.023Z,3.20
2018-08-09T22:28:30.529Z,3.30
2018-08-09T22:30:59.251Z,3.40
2018-08-09T22:33:27.970Z,2.90
2018-08-09T22:35:56.698Z,3.20
2018-08-09T22:38:25.330Z,3.33
2018-08-09T22:40:53.859Z,3.30
2018-08-09T22:43:22.425Z,3.47
2018-08-09T22:45:50.894Z,3.20
2018-08-09T22:48:19.451Z,3.10
2018-08-09T22:50:48.004Z,3.20
2018-08-09T22:53:17.329Z,3.13
2018-08-09T22:55:46.337Z,3.30
2018-08-09T22:58:15.145Z,3.67
2018-08-09T23:00:43.657Z,3.70
2018-08-09T23:03:13.363Z,3.40
2018-08-09T23:05:41.965Z,3.70
2018-08-09T23:13:32.314Z,3.80
2018-08-09T23:16:02.025Z,3.13
2018-08-09T23:18:30.569Z,3.43
2018-08-09T23:20:59.068Z,3.27
2018-08-09T23:23:27.633Z,3.67
2018-08-09T23:25:56.141Z,3.80
2018-08-09T23:28:24.715Z,3.43
2018-08-09T23:30:53.222Z,3.40
2018-08-09T23:33:24.177Z,3.80
2018-08-09T23:35:52.705Z,3.73
2018-08-09T23:38:21.309Z,3.60
2018-08-09T23:40:49.842Z,4.00
2018-08-09T23:43:18.369Z,3.63
2018-08-09T23:45:46.911Z,3.87
2018-08-09T23:48:15.392Z,3.50
2018-08-09T23:50:43.973Z,3.77
2018-08-09T23:53:12.452Z,3.87
2018-08-09T23:55:40.980Z,3.60
2018-08-09T23:58:09.484Z,3.70
